North West River, Canada
Current Conditions -  °F | °C
As of 2:00 PM on Tuesday 27 Jan 2015 (Local Time) from CYYR Reporting Station
Broken Clouds Broken Clouds  
Wind Chill: -30°   Ceiling: 24000
Heat Index: -13°   Visibility: 15mi
Dew Point: -27°   Wind: 8mph
Humidity: 49%   Direction: 250°WSW
Pressure: 30.57"   Gusts: NA
Location:  53.53°N, 60.15°W
Report Text: CYYR 271800Z 25007KT 15SM BKN240 M25/M33 A3057 RMK CI4 SLP360
Loading
Personal Weather Stations






























Interactive Weather Map New forecast layout! Learn more

10-Day Weather Forecast

Advertisements
Track Severe Weather on mobile